Time;durP1;ratioP1;P1;durP2;ratioP2;P2;SDS_P1;SDS_P2;PMS_P1;PMS_P2;Temp;Humidity;BMP_temperature;BMP_pressure;BME280_temperature;BME280_humidity;BME280_pressure;Samples;Min_cycle;Max_cycle;Signal;HPM_P1;HPM_P2
2023/02/09 00:02:16;;;;;;;28.80;17.10;;;;;;;-5.31;75.95;102451.30;105878;1258;71719;-67
2023/02/09 00:04:45;;;;;;;27.20;16.60;;;;;;;-5.30;75.51;102447.74;105432;1254;61593;-68
2023/02/09 00:07:14;;;;;;;27.20;16.90;;;;;;;-5.32;75.41;102443.32;104883;1254;1002471;-71
2023/02/09 00:09:44;;;;;;;31.90;18.20;;;;;;;-5.34;75.40;102449.88;105405;1260;73330;-67
2023/02/09 00:14:59;;;;;;;32.90;18.70;;;;;;;-5.40;75.02;102446.89;105468;1256;72221;-68
2023/02/09 00:17:28;;;;;;;31.10;16.80;;;;;;;-5.44;75.20;102447.46;104759;1256;1003399;-68
2023/02/09 00:19:56;;;;;;;30.10;18.20;;;;;;;-5.48;75.17;102442.06;105401;1254;61592;-68
2023/02/09 00:22:24;;;;;;;26.70;16.70;;;;;;;-5.51;75.31;102436.98;105493;1257;72939;-67
2023/02/09 00:24:53;;;;;;;28.10;16.60;;;;;;;-5.55;75.45;102431.55;105566;1255;68682;-69
2023/02/09 00:27:24;;;;;;;27.20;15.00;;;;;;;-5.54;75.33;102431.38;105550;1254;71067;-69
2023/02/09 00:38:10;;;;;;;29.10;17.70;;;;;;;-5.56;75.23;102423.40;102696;1296;600624;-69
2023/02/09 00:40:38;;;;;;;33.80;18.60;;;;;;;-5.60;75.79;102426.40;104473;1266;59476;-69
2023/02/09 00:43:06;;;;;;;28.40;17.80;;;;;;;-5.63;75.62;102426.45;105228;1258;61852;-70
2023/02/09 00:45:35;;;;;;;34.10;19.90;;;;;;;-5.70;75.42;102429.59;105380;1260;71856;-71
2023/02/09 00:48:04;;;;;;;32.70;21.40;;;;;;;-5.79;75.45;102424.61;105087;1261;69196;-72
2023/02/09 00:50:33;;;;;;;32.30;20.80;;;;;;;-5.87;75.97;102419.25;105768;1260;72939;-72
2023/02/09 00:53:02;;;;;;;31.30;18.50;;;;;;;-5.94;75.77;102415.08;105282;1257;60714;-70
2023/02/09 00:55:30;;;;;;;29.90;19.10;;;;;;;-6.01;76.35;102407.23;105789;1260;61053;-71
2023/02/09 00:57:58;;;;;;;34.10;18.30;;;;;;;-6.07;76.52;102406.33;105707;1257;72114;-70
2023/02/09 01:00:27;;;;;;;34.30;20.20;;;;;;;-6.11;76.92;102406.89;105546;1260;67671;-69
2023/02/09 01:02:57;;;;;;;32.60;18.70;;;;;;;-6.11;77.48;102407.08;105039;1258;1003324;-71
2023/02/09 01:05:25;;;;;;;34.10;19.20;;;;;;;-6.11;77.46;102408.80;105776;1256;61441;-68
2023/02/09 01:07:53;;;;;;;35.50;21.90;;;;;;;-6.10;77.91;102411.39;105740;1260;61043;-70
2023/02/09 01:10:22;;;;;;;33.90;19.90;;;;;;;-6.09;77.47;102411.72;105732;1260;73321;-71
2023/02/09 01:12:51;;;;;;;40.10;21.90;;;;;;;-6.09;77.44;102410.60;103950;1257;1003294;-68
2023/02/09 01:15:19;;;;;;;34.60;18.60;;;;;;;-6.07;77.71;102412.11;105157;1257;73323;-68
2023/02/09 01:17:49;;;;;;;35.00;20.30;;;;;;;-6.05;77.67;102413.76;105354;1258;63113;-68
2023/02/09 01:20:17;;;;;;;33.60;18.70;;;;;;;-6.02;77.44;102409.25;105350;1262;59656;-71
2023/02/09 01:22:46;;;;;;;33.70;18.80;;;;;;;-6.00;77.61;102405.77;105699;1258;74772;-69
2023/02/09 01:25:14;;;;;;;31.30;18.10;;;;;;;-5.97;77.41;102405.48;105704;1262;68557;-68
2023/02/09 01:27:42;;;;;;;28.70;16.90;;;;;;;-5.95;76.63;102402.60;105253;1256;71318;-67
2023/02/09 01:30:12;;;;;;;28.90;17.50;;;;;;;-5.96;76.75;102405.93;104695;1260;1003526;-69
2023/02/09 01:32:40;;;;;;;27.80;17.30;;;;;;;-5.98;76.07;102403.61;105150;1257;59796;-70
2023/02/09 01:35:09;;;;;;;27.10;15.20;;;;;;;-6.01;76.28;102399.55;105434;1257;72654;-70
2023/02/09 01:37:37;;;;;;;29.10;16.10;;;;;;;-6.01;76.20;102393.65;105826;1261;67658;-68
2023/02/09 01:40:06;;;;;;;29.20;15.90;;;;;;;-6.02;76.50;102392.09;105832;1259;74203;-69
2023/02/09 01:42:35;;;;;;;26.40;14.80;;;;;;;-6.02;76.02;102387.39;105832;1258;61206;-69
2023/02/09 01:45:13;;;;;;;27.30;16.50;;;;;;;-6.02;76.29;102391.77;105691;1261;59663;-70
2023/02/09 01:47:48;;;;;;;27.90;15.60;;;;;;;-6.04;76.70;102387.88;105784;1253;75250;-67
2023/02/09 01:50:19;;;;;;;22.50;14.70;;;;;;;-6.06;76.14;102393.03;105593;1258;66792;-69
2023/02/09 01:52:47;;;;;;;23.10;14.40;;;;;;;-6.07;76.44;102393.58;105583;1254;73578;-68
2023/02/09 01:55:18;;;;;;;27.10;13.80;;;;;;;-6.07;76.75;102394.45;105448;1253;61862;-70
2023/02/09 01:57:53;;;;;;;26.70;15.00;;;;;;;-6.05;76.78;102390.00;105799;1253;59595;-70
2023/02/09 02:00:21;;;;;;;19.40;12.50;;;;;;;-6.02;76.89;102384.61;105810;1258;72690;-69
2023/02/09 02:03:00;;;;;;;24.70;12.90;;;;;;;-6.01;76.70;102373.52;105830;1257;68201;-70
2023/02/09 02:05:28;;;;;;;18.20;11.90;;;;;;;-5.98;76.98;102376.17;105889;1253;72477;-70
2023/02/09 02:08:00;;;;;;;28.60;16.80;;;;;;;-5.97;77.06;102373.87;105950;1256;63027;-69
2023/02/09 02:10:29;;;;;;;29.70;14.70;;;;;;;-5.96;77.24;102371.21;106022;1253;59725;-67
2023/02/09 02:12:59;;;;;;;28.00;15.40;;;;;;;-5.94;77.08;102370.02;105883;1254;72830;-68
2023/02/09 02:15:49;;;;;;;25.80;15.60;;;;;;;-5.92;76.74;102369.59;105301;1259;66698;-68
2023/02/09 02:18:26;;;;;;;;;;;;;;;-5.90;77.03;102370.21;105912;1253;74573;-70
2023/02/09 02:21:12;;;;;;;24.00;15.40;;;;;;;-5.89;76.77;102373.80;105863;1254;60671;-70
2023/02/09 02:24:05;;;;;;;21.50;14.40;;;;;;;-5.88;76.64;102371.09;105919;1253;60122;-69
2023/02/09 02:26:40;;;;;;;28.20;15.90;;;;;;;-5.86;76.71;102369.95;105962;1258;72500;-69
2023/02/09 02:29:32;;;;;;;27.90;15.70;;;;;;;-5.85;76.62;102362.55;105743;1258;67551;-68
2023/02/09 02:32:22;;;;;;;30.10;16.80;;;;;;;-5.84;76.80;102361.60;105538;1256;72531;-70
2023/02/09 02:35:07;;;;;;;30.90;18.30;;;;;;;-5.81;76.62;102363.23;105564;1253;61012;-70
2023/02/09 02:37:50;;;;;;;27.00;17.10;;;;;;;-5.80;76.51;102362.63;104777;1254;1003082;-69
2023/02/09 02:40:45;;;;;;;33.20;18.60;;;;;;;-5.79;76.78;102359.62;105490;1254;73971;-73
2023/02/09 02:43:46;;;;;;;27.20;17.10;;;;;;;-5.78;76.38;102357.65;105557;1254;67368;-69
2023/02/09 02:46:27;;;;;;;25.90;17.30;;;;;;;-5.79;76.67;102358.71;105638;1257;72377;-70
2023/02/09 02:48:59;;;;;;;34.40;20.60;;;;;;;-5.79;76.69;102355.26;105482;1257;62325;-70
2023/02/09 02:51:34;;;;;;;20.50;13.40;;;;;;;-5.79;76.50;102358.20;105876;1254;60334;-68
2023/02/09 02:54:04;;;;;;;26.10;17.00;;;;;;;-5.77;76.58;102352.54;105883;1254;71460;-70
2023/02/09 02:56:38;;;;;;;30.80;16.10;;;;;;;-5.77;76.83;102358.10;109231;1253;66140;-67
2023/02/09 02:59:08;;;;;;;30.20;18.10;;;;;;;-5.76;77.10;102359.97;109218;1252;71576;-69
2023/02/09 03:01:43;;;;;;;33.70;18.00;;;;;;;-5.74;76.83;102360.59;109185;1253;61426;-69
2023/02/09 03:04:11;;;;;;;30.10;18.30;;;;;;;-5.74;76.88;102360.92;109176;1253;59719;-70
2023/02/09 03:06:40;;;;;;;26.00;16.50;;;;;;;-5.72;77.09;102352.97;109261;1254;71525;-70
2023/02/09 03:09:08;;;;;;;33.00;16.70;;;;;;;-5.69;76.80;102345.13;109339;1253;67233;-70
2023/02/09 03:11:51;;;;;;;35.00;19.20;;;;;;;-5.66;76.78;102343.58;109281;1254;72308;-68
2023/02/09 03:14:27;;;;;;;26.90;17.40;;;;;;;-5.63;76.66;102339.73;109340;1253;58457;-70
2023/02/09 03:17:10;;;;;;;28.20;18.00;;;;;;;-5.60;76.45;102335.93;109251;1254;60941;-70
2023/02/09 03:20:12;;;;;;;29.70;17.40;;;;;;;-5.57;76.44;102335.58;109357;1253;73352;-70
2023/02/09 03:22:45;;;;;;;23.90;15.10;;;;;;;-5.53;76.69;102337.98;109388;1253;68324;-69
2023/02/09 03:25:16;;;;;;;24.10;17.50;;;;;;;-5.53;76.36;102332.20;109332;1252;72666;-70
2023/02/09 03:27:58;;;;;;;25.90;17.80;;;;;;;-5.52;76.26;102327.06;109301;1253;60087;-69
2023/02/09 03:30:27;;;;;;;28.20;17.30;;;;;;;-5.49;75.93;102329.72;109318;1253;57905;-70
2023/02/09 03:32:56;;;;;;;24.00;16.00;;;;;;;-5.46;76.19;102329.21;109102;1254;72575;-69
2023/02/09 03:35:26;;;;;;;25.90;16.50;;;;;;;-5.47;75.82;102324.90;109326;1254;65270;-70
2023/02/09 03:37:54;;;;;;;27.40;16.80;;;;;;;-5.46;76.04;102326.24;109292;1254;71502;-69
2023/02/09 03:40:22;;;;;;;26.70;17.00;;;;;;;-5.44;75.83;102323.30;109244;1257;61084;-69
2023/02/09 03:42:50;;;;;;;28.90;16.80;;;;;;;-5.41;75.79;102321.06;109223;1253;59227;-70
2023/02/09 03:45:18;;;;;;;26.00;16.80;;;;;;;-5.38;75.69;102324.38;109313;1253;71181;-71
2023/02/09 03:47:47;;;;;;;28.00;15.20;;;;;;;-5.35;75.61;102326.30;109335;1253;65422;-71
2023/02/09 03:50:16;;;;;;;25.60;15.40;;;;;;;-5.33;75.70;102323.59;109422;1253;72518;-71
2023/02/09 03:52:44;;;;;;;25.10;16.10;;;;;;;-5.30;75.53;102321.16;109343;1253;60774;-70
2023/02/09 03:55:12;;;;;;;23.50;17.10;;;;;;;-5.27;75.11;102326.27;109457;1253;58090;-70
2023/02/09 03:57:41;;;;;;;22.70;12.70;;;;;;;-5.26;74.84;102325.13;109471;1253;72804;-72
2023/02/09 04:00:09;;;;;;;19.60;13.80;;;;;;;-5.27;74.89;102327.11;109484;1253;67040;-69
2023/02/09 04:02:42;;;;;;;23.90;13.80;;;;;;;-5.29;74.51;102323.40;109477;1253;71479;-69
2023/02/09 04:05:10;;;;;;;24.00;13.60;;;;;;;-5.31;74.75;102325.72;107078;1253;1002743;-69
2023/02/09 04:07:40;;;;;;;26.30;15.00;;;;;;;-5.30;74.73;102324.84;109448;1254;59055;-70
2023/02/09 04:10:09;;;;;;;25.20;15.60;;;;;;;-5.27;74.84;102322.60;109458;1253;71545;-69
2023/02/09 04:12:37;;;;;;;32.50;16.60;;;;;;;-5.24;74.64;102319.27;109468;1253;66816;-69
2023/02/09 04:15:08;;;;;;;24.60;13.80;;;;;;;-5.20;73.96;102314.34;109480;1253;72925;-69
2023/02/09 04:17:36;;;;;;;27.80;16.50;;;;;;;-5.16;74.23;102311.51;109420;1253;59750;-69
2023/02/09 04:20:04;;;;;;;18.60;13.00;;;;;;;-5.10;74.01;102308.51;109409;1253;58967;-70
2023/02/09 04:22:33;;;;;;;24.40;14.90;;;;;;;-5.05;73.82;102312.58;109453;1253;72933;-70
2023/02/09 04:25:01;;;;;;;24.90;15.40;;;;;;;-5.02;73.51;102310.48;109492;1253;67816;-68
2023/02/09 04:27:31;;;;;;;21.40;14.50;;;;;;;-5.00;73.44;102303.73;109468;1253;70619;-69
2023/02/09 04:29:59;;;;;;;20.80;13.70;;;;;;;-4.95;73.34;102298.72;109457;1253;60672;-68
2023/02/09 04:32:27;;;;;;;22.30;15.00;;;;;;;-4.92;72.89;102299.62;109483;1253;58228;-69
2023/02/09 04:34:56;;;;;;;23.70;14.80;;;;;;;-4.92;72.68;102302.92;109449;1253;71826;-69
2023/02/09 04:37:24;;;;;;;27.40;17.30;;;;;;;-4.90;72.49;102308.27;109480;1253;66286;-69
2023/02/09 04:39:52;;;;;;;23.80;15.40;;;;;;;-4.93;72.32;102300.55;109463;1253;71527;-65
2023/02/09 04:42:20;;;;;;;24.10;18.10;;;;;;;-4.97;72.07;102297.30;109442;1253;59851;-69
2023/02/09 04:44:48;;;;;;;22.40;15.10;;;;;;;-5.04;72.33;102296.96;109481;1253;61561;-67
2023/02/09 04:47:16;;;;;;;24.20;17.90;;;;;;;-5.12;72.18;102297.23;109455;1253;71499;-67
2023/02/09 04:49:44;;;;;;;23.20;16.10;;;;;;;-5.21;71.93;102297.40;109460;1254;66699;-68
2023/02/09 04:52:12;;;;;;;25.20;16.90;;;;;;;-5.30;72.10;102295.27;109396;1254;71592;-66
2023/02/09 04:54:40;;;;;;;23.20;15.30;;;;;;;-5.39;72.24;102292.08;109416;1254;59886;-67
2023/02/09 04:59:55;;;;;;;26.60;17.40;;;;;;;-5.51;72.81;102291.00;109400;1254;73671;-69
2023/02/09 05:02:23;;;;;;;25.00;16.50;;;;;;;-5.55;73.26;102298.95;109419;1254;65729;-69
2023/02/09 05:04:52;;;;;;;24.00;15.60;;;;;;;-5.61;73.82;102290.85;109433;1253;71417;-67
2023/02/09 05:07:22;;;;;;;27.60;15.40;;;;;;;-5.63;73.68;102293.79;109416;1254;58647;-71
2023/02/09 05:09:50;;;;;;;23.80;16.00;;;;;;;-5.66;74.10;102293.79;109450;1254;61503;-68
2023/02/09 05:12:20;;;;;;;24.70;16.20;;;;;;;-5.70;73.88;102286.45;108694;1254;1002867;-68
2023/02/09 05:14:48;;;;;;;28.60;17.20;;;;;;;-5.73;74.44;102279.77;109428;1254;67709;-71
2023/02/09 05:17:19;;;;;;;24.10;16.30;;;;;;;-5.73;74.36;102280.85;108642;1254;1002514;-70
2023/02/09 05:19:48;;;;;;;29.90;17.70;;;;;;;-5.75;74.69;102281.49;108645;1254;1015271;-69
2023/02/09 05:22:16;;;;;;;30.00;17.30;;;;;;;-5.76;74.85;102282.26;109396;1254;58032;-66
2023/02/09 05:24:44;;;;;;;29.30;18.20;;;;;;;-5.77;75.04;102276.19;109411;1254;74771;-69
2023/02/09 05:27:12;;;;;;;31.50;21.40;;;;;;;-5.75;75.31;102277.28;109392;1254;66455;-68
2023/02/09 05:29:40;;;;;;;35.90;22.00;;;;;;;-5.73;75.49;102277.51;109394;1254;71490;-70
2023/02/09 05:32:08;;;;;;;28.40;19.20;;;;;;;-5.67;75.34;102278.44;109372;1254;62238;-67
2023/02/09 05:34:38;;;;;;;31.80;19.20;;;;;;;-5.62;75.48;102273.83;109424;1254;58619;-68
2023/02/09 05:37:06;;;;;;;30.80;19.50;;;;;;;-5.56;75.46;102274.02;109400;1254;73061;-67
2023/02/09 05:39:34;;;;;;;32.90;20.50;;;;;;;-5.50;75.56;102272.81;108544;1254;1003006;-66
2023/02/09 05:42:15;;;;;;;35.50;21.70;;;;;;;-5.46;75.36;102276.58;109368;1254;70210;-69
2023/02/09 05:44:44;;;;;;;34.40;21.20;;;;;;;-5.39;75.42;102269.93;109403;1254;59644;-70
2023/02/09 05:47:13;;;;;;;29.40;19.60;;;;;;;-5.34;75.07;102273.84;109432;1254;58949;-70
2023/02/09 05:49:41;;;;;;;33.60;22.70;;;;;;;-5.29;75.34;102274.59;109310;1255;73477;-70
2023/02/09 05:52:12;;;;;;;36.50;22.20;;;;;;;-5.24;75.34;102279.58;109297;1255;69380;-68
2023/02/09 05:54:41;;;;;;;32.70;22.00;;;;;;;-5.18;75.06;102285.73;109253;1259;71722;-70
2023/02/09 05:57:09;;;;;;;38.00;22.70;;;;;;;-5.13;75.20;102282.59;109306;1255;59548;-68
2023/02/09 05:59:37;;;;;;;36.40;23.70;;;;;;;-5.05;74.86;102283.02;109300;1255;61353;-67
2023/02/09 06:02:06;;;;;;;40.00;24.80;;;;;;;-5.01;74.55;102283.00;109264;1255;72903;-67
2023/02/09 06:04:34;;;;;;;36.20;22.30;;;;;;;-5.02;74.62;102281.98;109217;1256;66266;-68
2023/02/09 06:07:03;;;;;;;43.20;25.90;;;;;;;-5.06;74.44;102277.83;109303;1255;71322;-68
2023/02/09 06:09:31;;;;;;;42.70;26.80;;;;;;;-5.11;74.34;102279.35;109147;1256;59153;-69
2023/02/09 06:12:00;;;;;;;46.40;28.20;;;;;;;-5.17;74.33;102278.65;109206;1255;60007;-69
2023/02/09 06:14:29;;;;;;;43.80;25.60;;;;;;;-5.22;74.72;102274.94;108527;1255;1002568;-71
2023/02/09 06:17:01;;;;;;;36.20;22.50;;;;;;;-5.29;74.78;102280.02;109309;1255;67269;-70
2023/02/09 06:19:30;;;;;;;38.10;23.00;;;;;;;-5.35;74.85;102283.27;109165;1256;71500;-69
2023/02/09 06:21:58;;;;;;;34.00;23.30;;;;;;;-5.39;75.04;102288.08;109269;1255;61582;-68
2023/02/09 06:24:27;;;;;;;47.30;28.30;;;;;;;-5.43;75.51;102287.09;109296;1255;60143;-68
2023/02/09 06:26:55;;;;;;;42.70;27.00;;;;;;;-5.46;75.88;102285.32;109308;1255;72977;-72
2023/02/09 06:29:23;;;;;;;39.70;27.90;;;;;;;-5.46;76.13;102285.16;109302;1255;68386;-69
2023/02/09 06:31:51;;;;;;;39.40;23.10;;;;;;;-5.46;76.42;102287.41;109153;1256;71396;-69
2023/02/09 06:34:19;;;;;;;42.00;23.10;;;;;;;-5.45;76.47;102288.41;109209;1256;59071;-73
2023/02/09 06:36:47;;;;;;;40.30;23.70;;;;;;;-5.45;76.69;102289.48;109174;1256;59060;-69
2023/02/09 06:39:15;;;;;;;48.70;26.90;;;;;;;-5.45;76.76;102287.20;109288;1255;72332;-68
2023/02/09 06:41:43;;;;;;;41.70;27.20;;;;;;;-5.44;76.72;102288.19;109314;1255;67705;-69
2023/02/09 06:44:12;;;;;;;49.90;30.60;;;;;;;-5.43;77.09;102293.38;108532;1255;1002697;-70
2023/02/09 06:46:40;;;;;;;42.50;29.10;;;;;;;-5.40;77.39;102294.06;109155;1255;58160;-72
2023/02/09 06:49:09;;;;;;;44.60;29.70;;;;;;;-5.37;77.63;102291.80;109076;1256;59747;-67
2023/02/09 06:51:37;;;;;;;48.60;28.80;;;;;;;-5.34;77.24;102287.98;109200;1256;72698;-69
2023/02/09 06:54:05;;;;;;;44.60;28.70;;;;;;;-5.30;77.42;102289.52;109226;1256;66042;-69
2023/02/09 06:56:33;;;;;;;52.20;31.40;;;;;;;-5.29;77.45;102284.04;108475;1256;1002307;-69
2023/02/09 06:59:02;;;;;;;45.10;27.50;;;;;;;-5.29;77.18;102280.89;109047;1256;60562;-68
2023/02/09 07:01:30;;;;;;;46.00;28.30;;;;;;;-5.25;77.45;102281.52;108455;1256;1002476;-69
2023/02/09 07:03:58;;;;;;;52.10;31.10;;;;;;;-5.20;77.61;102281.96;109223;1256;73360;-70
2023/02/09 07:06:26;;;;;;;38.90;25.20;;;;;;;-5.16;77.75;102284.86;109224;1256;66319;-69
2023/02/09 07:08:56;;;;;;;54.50;31.40;;;;;;;-5.12;77.49;102290.81;108430;1256;1002831;-67
2023/02/09 07:11:24;;;;;;;45.90;27.90;;;;;;;-5.07;77.63;102293.99;109075;1256;61272;-69
2023/02/09 07:13:53;;;;;;;46.80;28.50;;;;;;;-4.98;77.73;102294.86;109211;1256;58190;-69
2023/02/09 07:16:21;;;;;;;52.80;27.80;;;;;;;-4.87;77.52;102295.14;109131;1256;72969;-69
2023/02/09 07:18:49;;;;;;;49.70;27.70;;;;;;;-4.76;77.35;102296.78;109178;1256;66794;-68
2023/02/09 07:21:20;;;;;;;45.90;26.70;;;;;;;-4.68;77.06;102295.77;109132;1256;72060;-69
2023/02/09 07:23:49;;;;;;;41.60;26.80;;;;;;;-4.60;77.17;102294.47;109203;1256;58111;-68
2023/02/09 07:26:17;;;;;;;41.00;26.80;;;;;;;-4.53;76.91;102295.64;109221;1256;59196;-68
2023/02/09 07:28:45;;;;;;;34.90;21.90;;;;;;;-4.48;76.83;102298.50;108451;1256;1002898;-70
2023/02/09 07:31:14;;;;;;;35.90;23.50;;;;;;;-4.45;76.64;102298.66;109229;1256;67111;-69
2023/02/09 07:33:47;;;;;;;41.10;25.30;;;;;;;-4.42;76.60;102294.10;108355;1256;1002988;-67
2023/02/09 07:36:15;;;;;;;41.10;27.10;;;;;;;-4.36;76.78;102294.48;109101;1259;59378;-69
2023/02/09 07:38:43;;;;;;;42.70;25.30;;;;;;;-4.30;76.83;102292.52;109224;1256;59419;-68
2023/02/09 07:41:14;;;;;;;39.90;24.70;;;;;;;-4.24;76.70;102292.15;109203;1256;73850;-67
2023/02/09 07:43:42;;;;;;;43.70;27.70;;;;;;;-4.17;76.65;102291.92;109218;1255;66799;-68
2023/02/09 07:46:12;;;;;;;41.90;28.40;;;;;;;-4.12;76.64;102290.20;109235;1256;70407;-67
2023/02/09 07:48:40;;;;;;;49.50;29.10;;;;;;;-4.09;76.47;102284.75;109062;1257;59143;-67
2023/02/09 07:51:15;;;;;;;42.60;24.90;;;;;;;-4.04;76.60;102280.98;108301;1257;1002139;-69
2023/02/09 07:53:44;;;;;;;37.90;25.50;;;;;;;-4.00;76.48;102282.28;109073;1259;73329;-69
2023/02/09 07:56:12;;;;;;;39.60;25.80;;;;;;;-3.96;76.46;102286.93;109098;1257;65589;-68
2023/02/09 07:58:40;;;;;;;36.60;23.90;;;;;;;-3.91;76.43;102277.95;109065;1257;72152;-69
2023/02/09 08:01:10;;;;;;;34.40;22.80;;;;;;;-3.87;76.40;102277.67;109047;1257;59631;-67
2023/02/09 08:03:39;;;;;;;39.80;22.70;;;;;;;-3.85;76.10;102272.79;109105;1257;59101;-70
2023/02/09 08:06:25;;;;;;;33.90;22.50;;;;;;;-3.80;76.25;102275.63;109062;1257;73648;-67
2023/02/09 08:09:09;;;;;;;30.80;20.20;;;;;;;-3.74;76.11;102274.73;109106;1257;65776;-68
2023/02/09 08:11:47;;;;;;;35.50;23.00;;;;;;;-3.69;76.02;102278.48;108272;1258;1002546;-67
2023/02/09 08:14:27;;;;;;;34.50;20.30;;;;;;;-3.66;75.86;102277.42;109046;1257;60395;-68
2023/02/09 08:17:18;;;;;;;33.20;23.00;;;;;;;-3.61;75.54;102274.77;108222;1257;1002111;-68
2023/02/09 08:20:13;;;;;;;28.50;20.50;;;;;;;-3.54;75.53;102268.94;109039;1257;73662;-69
2023/02/09 08:22:44;;;;;;;37.50;22.20;;;;;;;-3.44;75.38;102269.02;109043;1257;69120;-70
2023/02/09 08:25:18;;;;;;;32.60;22.40;;;;;;;-3.35;75.12;102270.20;109019;1257;72488;-69
2023/02/09 08:27:46;;;;;;;34.50;20.90;;;;;;;-3.24;74.94;102269.86;109032;1257;60937;-69
2023/02/09 08:30:18;;;;;;;29.20;19.40;;;;;;;-3.13;74.75;102259.80;109038;1257;58647;-69
2023/02/09 08:32:48;;;;;;;32.60;19.70;;;;;;;-3.03;74.26;102262.48;109037;1257;72208;-68
2023/02/09 08:35:17;;;;;;;37.50;24.20;;;;;;;-2.94;74.02;102261.55;109087;1258;67741;-69
2023/02/09 08:37:45;;;;;;;29.60;20.10;;;;;;;-2.88;73.92;102262.04;109086;1257;73093;-70
2023/02/09 08:40:14;;;;;;;28.80;19.60;;;;;;;-2.83;73.49;102261.88;109075;1257;58134;-69
2023/02/09 08:42:42;;;;;;;31.30;21.30;;;;;;;-2.79;73.45;102266.17;109062;1258;58124;-69
2023/02/09 08:45:11;;;;;;;33.50;20.30;;;;;;;-2.76;73.04;102259.99;109080;1257;73862;-70
2023/02/09 08:47:40;;;;;;;31.30;20.20;;;;;;;-2.70;73.29;102261.90;108316;1258;1002947;-69
2023/02/09 08:50:09;;;;;;;31.40;20.10;;;;;;;-2.65;73.13;102258.38;108296;1257;1002261;-69
2023/02/09 08:52:38;;;;;;;32.40;18.90;;;;;;;-2.58;72.74;102260.60;109012;1258;58693;-69
2023/02/09 08:55:07;;;;;;;30.40;20.40;;;;;;;-2.53;72.64;102261.29;109021;1258;60729;-68
2023/02/09 08:57:36;;;;;;;28.20;18.60;;;;;;;-2.49;72.52;102258.58;109067;1258;73295;-68
2023/02/09 09:00:13;;;;;;;34.90;22.00;;;;;;;-2.46;72.15;102254.68;109035;1258;69166;-69
2023/02/09 09:02:42;;;;;;;30.50;21.00;;;;;;;-2.41;72.21;102252.91;109041;1258;72194;-67
2023/02/09 09:05:11;;;;;;;30.20;19.50;;;;;;;-2.36;72.14;102254.67;108961;1258;59002;-71
2023/02/09 09:07:40;;;;;;;29.20;18.50;;;;;;;-2.30;72.28;102248.98;109088;1258;58058;-68
2023/02/09 09:10:12;;;;;;;25.50;17.60;;;;;;;-2.24;71.69;102238.41;109026;1258;73447;-68
2023/02/09 09:12:42;;;;;;;25.40;16.90;;;;;;;-2.17;72.08;102235.80;109092;1258;68112;-69
2023/02/09 09:15:10;;;;;;;31.90;19.60;;;;;;;-2.09;71.77;102233.15;109078;1258;71745;-68
2023/02/09 09:17:39;;;;;;;28.90;17.20;;;;;;;-2.01;71.73;102227.52;108281;1259;1002831;-70
2023/02/09 09:20:08;;;;;;;28.90;18.30;;;;;;;-1.95;71.25;102224.27;108285;1257;1002980;-69
2023/02/09 09:22:36;;;;;;;28.00;17.30;;;;;;;-1.89;71.09;102212.75;109080;1258;72675;-70
2023/02/09 09:25:05;;;;;;;28.00;20.50;;;;;;;-1.82;70.69;102210.30;109035;1258;67927;-71
2023/02/09 09:27:34;;;;;;;22.70;16.20;;;;;;;-1.76;70.42;102205.52;108297;1257;1002277;-72
2023/02/09 09:30:03;;;;;;;21.80;15.10;;;;;;;-1.68;70.53;102206.91;109002;1259;59663;-68
2023/02/09 09:32:33;;;;;;;23.40;15.90;;;;;;;-1.60;70.27;102199.98;109015;1258;58235;-71
2023/02/09 09:35:02;;;;;;;23.90;15.00;;;;;;;-1.53;69.51;102190.46;109086;1258;71927;-69
2023/02/09 09:37:31;;;;;;;25.00;15.70;;;;;;;-1.45;69.22;102184.10;108248;1258;1002452;-69
2023/02/09 09:40:00;;;;;;;27.00;16.60;;;;;;;-1.38;68.90;102181.24;109093;1259;73002;-70
2023/02/09 09:42:39;;;;;;;22.60;15.00;;;;;;;-1.29;68.71;102172.89;109018;1259;61579;-69
2023/02/09 09:45:13;;;;;;;22.40;16.50;;;;;;;-1.20;68.52;102169.94;109057;1258;58232;-69
2023/02/09 09:47:43;;;;;;;20.90;14.50;;;;;;;-1.11;68.25;102166.95;109004;1258;74742;-70
2023/02/09 09:50:35;;;;;;;25.40;15.00;;;;;;;-1.03;67.69;102163.86;108932;1259;66903;-71
2023/02/09 09:53:24;;;;;;;26.50;15.60;;;;;;;-0.95;67.34;102160.83;109013;1259;72643;-72
2023/02/09 09:56:00;;;;;;;21.80;15.10;;;;;;;-0.85;67.13;102162.01;108905;1259;60886;-74
2023/02/09 09:58:32;;;;;;;22.50;14.10;;;;;;;-0.79;66.78;102157.13;108988;1259;58406;-72
2023/02/09 10:01:05;;;;;;;21.50;15.10;;;;;;;-0.74;66.03;102157.81;108965;1259;74902;-68
2023/02/09 10:03:37;;;;;;;22.10;13.50;;;;;;;-0.71;65.91;102160.10;109053;1258;68230;-72
2023/02/09 10:06:30;;;;;;;22.30;15.20;;;;;;;-0.66;65.65;102158.09;109069;1259;72156;-69
2023/02/09 10:09:04;;;;;;;20.40;14.20;;;;;;;-0.60;65.38;102153.56;108992;1258;61771;-72
2023/02/09 10:11:43;;;;;;;23.50;14.40;;;;;;;-0.54;65.04;102152.92;108942;1259;59016;-70
2023/02/09 10:14:14;;;;;;;19.60;13.60;;;;;;;-0.47;64.61;102151.14;108885;1259;72555;-70
2023/02/09 10:16:44;;;;;;;19.40;13.30;;;;;;;-0.42;64.04;102149.33;109051;1258;68535;-70
2023/02/09 10:19:40;;;;;;;19.00;13.70;;;;;;;-0.40;63.40;102144.97;109036;1259;72600;-70
2023/02/09 10:22:12;;;;;;;24.30;15.30;;;;;;;-0.38;63.33;102139.31;109012;1259;61731;-67
2023/02/09 10:24:44;;;;;;;20.90;14.70;;;;;;;-0.33;63.17;102129.08;109021;1259;59960;-67
2023/02/09 10:27:28;;;;;;;22.00;15.00;;;;;;;-0.29;62.91;102126.46;109039;1263;75228;-71
2023/02/09 10:30:18;;;;;;;19.30;13.20;;;;;;;-0.22;62.86;102124.34;109076;1259;65857;-72
2023/02/09 10:32:48;;;;;;;19.20;14.30;;;;;;;-0.16;62.64;102113.24;109058;1259;73833;-76
2023/02/09 10:35:33;;;;;;;22.70;15.10;;;;;;;-0.08;62.54;102111.22;109010;1258;58443;-73
2023/02/09 10:38:11;;;;;;;20.00;14.30;;;;;;;-0.01;61.90;102099.91;108994;1259;58981;-73
2023/02/09 10:40:42;;;;;;;25.50;14.70;;;;;;;0.06;62.17;102095.98;108907;1259;72545;-71
2023/02/09 10:43:26;;;;;;;23.20;14.00;;;;;;;0.15;61.66;102090.21;109042;1258;69163;-72
2023/02/09 10:54:07;;;;;;;17.40;13.50;;;;;;;0.33;61.09;102082.63;102134;1293;600938;-69
2023/02/09 10:56:41;;;;;;;21.60;16.50;;;;;;;0.35;60.37;102091.84;104453;1273;59332;-70
2023/02/09 10:59:21;;;;;;;23.00;14.10;;;;;;;0.34;59.75;102080.48;105426;1264;60274;-70
2023/02/09 11:01:55;;;;;;;26.20;15.40;;;;;;;0.31;60.03;102073.64;105594;1262;73096;-72
2023/02/09 11:04:25;;;;;;;29.70;15.10;;;;;;;0.35;60.51;102072.11;105835;1258;68349;-71
2023/02/09 11:07:00;;;;;;;24.20;15.90;;;;;;;0.41;60.45;102067.52;105162;1254;524778;-71
2023/02/09 11:09:31;;;;;;;22.70;15.80;;;;;;;0.47;60.03;102058.06;105856;1257;60487;-77
2023/02/09 11:12:00;;;;;;;22.40;15.40;;;;;;;0.52;60.12;102057.52;105907;1259;59666;-79
2023/02/09 11:14:33;;;;;;;24.90;16.40;;;;;;;0.58;60.11;102052.23;105945;1256;71977;-82
2023/02/09 11:17:36;;;;;;;17.50;12.60;;;;;;;0.66;59.66;102052.75;105868;1254;67504;-72
2023/02/09 11:20:18;;;;;;;23.10;14.30;;;;;;;0.75;59.16;102053.20;105805;1254;74535;-70
2023/02/09 11:23:03;;;;;;;18.30;13.20;;;;;;;0.83;58.67;102052.73;105399;1258;60659;-69
2023/02/09 11:25:41;;;;;;;20.30;15.10;;;;;;;0.90;58.12;102049.15;105489;1254;61219;-71
2023/02/09 11:28:43;;;;;;;23.70;16.70;;;;;;;0.96;57.76;102040.38;105836;1254;74617;-72
2023/02/09 11:31:47;;;;;;;21.50;14.80;;;;;;;1.00;57.47;102042.48;105903;1258;66339;-84
2023/02/09 11:34:54;;;;;;;18.50;13.80;;;;;;;0.98;56.97;102038.39;105818;1259;72381;-74
2023/02/09 11:37:47;;;;;;;22.00;15.70;;;;;;;0.98;57.20;102039.45;105912;1254;61483;-72
2023/02/09 11:40:42;;;;;;;20.40;14.20;;;;;;;1.01;57.10;102030.86;105798;1255;60603;-72
2023/02/09 11:43:10;;;;;;;25.70;17.10;;;;;;;1.04;57.05;102023.52;105804;1256;72520;-74
2023/02/09 11:45:45;;;;;;;25.10;18.00;;;;;;;1.08;57.06;102018.85;105955;1254;67278;-73
2023/02/09 11:48:19;;;;;;;22.40;16.30;;;;;;;1.09;57.01;102021.68;105466;1258;72619;-74